createdAt,value
2023-01-23T00:04:32.333Z,101255.19
2023-01-23T00:09:34.010Z,101251.25
2023-01-23T00:14:35.719Z,101232.78
2023-01-23T00:19:37.520Z,101241.09
2023-01-23T00:24:39.134Z,101250.66
2023-01-23T00:29:40.818Z,101264.28
2023-01-23T00:34:42.504Z,101228.50
2023-01-23T00:39:45.530Z,101241.91
2023-01-23T00:44:47.259Z,101216.81
2023-01-23T00:49:48.856Z,101204.59
2023-01-23T00:54:50.604Z,101228.63
2023-01-23T00:59:52.308Z,101217.72
2023-01-23T01:04:53.888Z,101223.69
2023-01-23T01:09:55.542Z,101214.13
2023-01-23T01:14:57.243Z,101211.50
2023-01-23T01:19:58.917Z,101219.94
2023-01-23T01:25:00.543Z,101206.84
2023-01-23T01:30:02.368Z,101218.88
2023-01-23T01:35:07.048Z,101214.81
2023-01-23T01:40:13.592Z,101218.19
2023-01-23T01:45:52.705Z,101231.66
2023-01-23T01:50:54.585Z,101225.63
2023-01-23T01:55:57.543Z,101222.78
2023-01-23T02:00:59.219Z,101243.84
2023-01-23T02:06:01.019Z,101230.88
2023-01-23T02:11:03.537Z,101236.03
2023-01-23T02:16:09.515Z,101240.28
2023-01-23T02:21:13.745Z,101248.78
2023-01-23T02:26:22.314Z,101271.25
2023-01-23T02:31:24.154Z,101317.94
2023-01-23T02:36:29.818Z,101234.22
2023-01-23T02:41:43.926Z,101325.78
2023-01-23T02:46:45.768Z,101276.66
2023-01-23T02:51:47.693Z,101279.81
2023-01-23T02:56:49.722Z,101264.78
2023-01-23T03:01:51.547Z,101268.19
2023-01-23T03:06:53.187Z,101251.28
2023-01-23T03:11:55.037Z,101257.38
2023-01-23T03:16:56.693Z,101227.97
2023-01-23T03:21:58.323Z,101270.41
2023-01-23T03:27:00.020Z,101254.16
2023-01-23T03:32:02.460Z,101283.25
2023-01-23T03:37:04.961Z,101266.28
2023-01-23T03:42:06.781Z,101260.84
2023-01-23T03:47:08.629Z,101221.84
2023-01-23T03:52:10.313Z,101220.34
2023-01-23T03:57:11.928Z,101223.03
2023-01-23T04:02:13.544Z,101216.72
2023-01-23T04:07:15.202Z,101220.69
2023-01-23T04:12:17.312Z,101227.22
2023-01-23T04:17:18.997Z,101228.44
2023-01-23T04:22:20.751Z,101232.06
2023-01-23T04:27:22.469Z,101245.34
2023-01-23T04:32:25.417Z,101254.34
2023-01-23T04:37:27.124Z,101255.22
2023-01-23T04:42:28.723Z,101267.16
2023-01-23T19:07:03.686Z,101333.47
2023-01-23T19:12:30.219Z,101324.19
2023-01-23T19:18:03.438Z,101328.78
2023-01-23T19:23:13.735Z,101334.09
2023-01-23T19:28:16.101Z,101337.84
2023-01-23T19:33:18.949Z,101329.66
2023-01-23T19:38:22.621Z,101301.84
2023-01-23T19:43:25.271Z,101321.06
2023-01-23T19:48:27.452Z,101328.34
2023-01-23T19:53:29.030Z,101310.44
2023-01-23T19:58:32.194Z,101321.28
2023-01-23T20:03:35.650Z,101315.66
2023-01-23T20:08:37.408Z,101319.47
2023-01-23T20:13:42.769Z,101301.69
2023-01-23T20:18:48.064Z,101320.19
2023-01-23T20:23:50.681Z,101311.50
2023-01-23T20:28:56.227Z,101293.13
2023-01-23T20:33:57.808Z,101297.88
2023-01-23T20:38:59.581Z,101309.97
2023-01-23T20:44:01.197Z,101309.97
2023-01-23T20:49:02.902Z,101300.03
2023-01-23T20:54:04.726Z,101314.63
2023-01-23T20:59:18.655Z,101307.72
2023-01-23T21:04:21.388Z,101309.28
2023-01-23T21:09:23.925Z,101313.03
2023-01-23T21:14:25.592Z,101297.72
2023-01-23T21:19:27.522Z,101318.84
2023-01-23T21:24:29.236Z,101315.59
2023-01-23T21:29:31.824Z,101318.78
2023-01-23T21:34:33.461Z,101329.13
2023-01-23T21:39:35.064Z,101309.16
2023-01-23T21:44:36.745Z,101368.50
2023-01-23T21:49:38.336Z,101351.38
2023-01-23T21:54:41.898Z,101357.97
2023-01-23T22:00:03.513Z,101356.28
2023-01-23T22:05:05.506Z,101359.69
2023-01-23T22:10:07.964Z,101374.84
2023-01-23T22:15:10.157Z,101361.56
2023-01-23T22:20:13.049Z,101394.13
2023-01-23T22:25:14.796Z,101380.25
2023-01-23T22:30:16.673Z,101412.63
2023-01-23T22:35:18.446Z,101438.53
2023-01-23T22:40:20.362Z,101414.31
2023-01-23T22:45:22.447Z,101411.53
2023-01-23T22:50:24.776Z,101440.22
2023-01-23T22:55:26.496Z,101384.91
2023-01-23T23:00:28.172Z,101506.50
2023-01-23T23:05:29.911Z,101383.38
2023-01-23T23:10:31.630Z,101370.88
2023-01-23T23:15:35.522Z,101391.25
2023-01-23T23:20:37.214Z,101451.69
2023-01-23T23:25:38.936Z,101392.56
2023-01-23T23:30:40.627Z,101435.25
2023-01-23T23:35:43.099Z,101406.44
2023-01-23T23:40:53.154Z,101446.66
2023-01-23T23:45:57.319Z,101403.31
2023-01-23T23:51:04.639Z,101370.19
2023-01-23T23:56:07.452Z,101442.38
